Time;durP1;ratioP1;P1;durP2;ratioP2;P2;SDS_P1;SDS_P2;PMS_P1;PMS_P2;Temp;Humidity;BMP_temperature;BMP_pressure;BME280_temperature;BME280_humidity;BME280_pressure;Samples;Min_cycle;Max_cycle;Signal;HPM_P1;HPM_P2
2023/04/22 00:00:37;;;;;;;1.8;1.6;;;;;;;9.23;83.86035;932.5858;;;;
2023/04/22 00:03:10;;;;;;;1.5;1.4;;;;;;;9.23;83.55273;932.577;;;;
2023/04/22 00:05:38;;;;;;;2.6;1.6;;;;;;;9.27;83.65137;932.5835;;;;
2023/04/22 00:08:10;;;;;;;3.6;1.5;;;;;;;9.22;83.70898;932.6262;;;;
2023/04/22 00:10:55;;;;;;;3.4;1.8;;;;;;;9.14;84.17285;932.6223;;;;
2023/04/22 00:13:25;;;;;;;2.1;1.7;;;;;;;9.1;84.52832;932.5983;;;;
2023/04/22 00:15:51;;;;;;;3;1.7;;;;;;;9.07;84.50195;932.6211;;;;
2023/04/22 00:18:28;;;;;;;1.6;1.4;;;;;;;9.12;84.14453;932.6301;;;;
2023/04/22 00:21:01;;;;;;;2.5;1.4;;;;;;;8.99;84.51855;932.6124;;;;
2023/04/22 00:23:31;;;;;;;1.9;1.7;;;;;;;8.99;84.43848;932.6156;;;;
2023/04/22 00:26:02;;;;;;;3;1.6;;;;;;;8.99;84.08594;932.4885;;;;
2023/04/22 00:28:32;;;;;;;2.9;1.5;;;;;;;8.86;84.73242;932.5291;;;;
2023/04/22 00:30:57;;;;;;;1.8;1.4;;;;;;;8.92;84.54004;932.4747;;;;
2023/04/22 00:33:38;;;;;;;2.1;1.8;;;;;;;8.96;84.3418;932.567;;;;
2023/04/22 00:36:04;;;;;;;2.3;1.7;;;;;;;;;;;;;
2023/04/22 00:38:29;;;;;;;2.1;1.4;;;;;;;;;;;;;
2023/04/22 00:40:54;;;;;;;2;1.7;;;;;;;;;;;;;
2023/04/22 00:43:20;;;;;;;32.9;20.3;;;;;;;;;;;;;
2023/04/22 00:45:46;;;;;;;5.8;4.3;;;;;;;;;;;;;
2023/04/22 00:48:12;;;;;;;1.3;1.2;;;;;;;;;;;;;
2023/04/22 00:50:37;;;;;;;2.3;1.7;;;;;;;;;;;;;
2023/04/22 00:53:03;;;;;;;2.9;1.6;;;;;;;;;;;;;
2023/04/22 00:55:28;;;;;;;1.9;1.4;;;;;;;;;;;;;
2023/04/22 00:57:55;;;;;;;2;1.7;;;;;;;;;;;;;
2023/04/22 01:00:25;;;;;;;1.6;1.5;;;;;;;;;;;;;
2023/04/22 01:02:45;;;;;;;2.3;1.6;;;;;;;;;;;;;
2023/04/22 01:05:10;;;;;;;1.4;1.2;;;;;;;;;;;;;
2023/04/22 01:07:35;;;;;;;4.9;1.6;;;;;;;;;;;;;
2023/04/22 01:10:00;;;;;;;1.7;1.1;;;;;;;;;;;;;
2023/04/22 01:12:27;;;;;;;1.6;1.5;;;;;;;;;;;;;
2023/04/22 01:14:52;;;;;;;1.3;1.1;;;;;;;;;;;;;
2023/04/22 01:17:20;;;;;;;1.6;1.2;;;;;;;;;;;;;
2023/04/22 01:19:44;;;;;;;1.6;1.2;;;;;;;;;;;;;
2023/04/22 01:22:09;;;;;;;2.1;1.2;;;;;;;;;;;;;
2023/04/22 01:24:34;;;;;;;1.2;1.1;;;;;;;;;;;;;
2023/04/22 01:27:02;;;;;;;1.6;1.3;;;;;;;;;;;;;
2023/04/22 01:29:27;;;;;;;2.6;1.4;;;;;;;;;;;;;
2023/04/22 01:31:52;;;;;;;1.9;1.3;;;;;;;;;;;;;
2023/04/22 01:34:17;;;;;;;1.8;1.3;;;;;;;;;;;;;
2023/04/22 01:36:42;;;;;;;1.4;1.3;;;;;;;;;;;;;
2023/04/22 01:39:07;;;;;;;1.6;1.1;;;;;;;;;;;;;
2023/04/22 01:41:35;;;;;;;2.2;1.2;;;;;;;;;;;;;
2023/04/22 01:44:00;;;;;;;13.2;7.8;;;;;;;;;;;;;
2023/04/22 01:46:26;;;;;;;3.2;2.3;;;;;;;;;;;;;
2023/04/22 01:48:52;;;;;;;1.2;1;;;;;;;;;;;;;
2023/04/22 01:51:17;;;;;;;2.3;2.2;;;;;;;;;;;;;
2023/04/22 01:53:42;;;;;;;3.3;1.4;;;;;;;;;;;;;
2023/04/22 01:56:07;;;;;;;3;1.3;;;;;;;;;;;;;
2023/04/22 01:58:32;;;;;;;2.6;1.7;;;;;;;;;;;;;
2023/04/22 02:01:01;;;;;;;2.5;1.7;;;;;;;;;;;;;
2023/04/22 02:03:26;;;;;;;2;1.7;;;;;;;;;;;;;
2023/04/22 02:05:52;;;;;;;1.9;1.5;;;;;;;;;;;;;
2023/04/22 02:08:16;;;;;;;3.5;1.8;;;;;;;;;;;;;
2023/04/22 02:10:45;;;;;;;3.9;1.6;;;;;;;;;;;;;
2023/04/22 02:13:12;;;;;;;3.2;1.7;;;;;;;;;;;;;
2023/04/22 02:15:39;;;;;;;1.7;1.1;;;;;;;;;;;;;
2023/04/22 02:18:05;;;;;;;1.5;1.4;;;;;;;;;;;;;
2023/04/22 02:20:29;;;;;;;2.6;1.9;;;;;;;;;;;;;
2023/04/22 02:22:55;;;;;;;2.4;1.8;;;;;;;;;;;;;
2023/04/22 02:25:20;;;;;;;1.6;1.5;;;;;;;;;;;;;
2023/04/22 02:27:46;;;;;;;4.8;3.3;;;;;;;;;;;;;
2023/04/22 02:30:11;;;;;;;6.5;3.7;;;;;;;;;;;;;
2023/04/22 02:32:38;;;;;;;10.2;5.6;;;;;;;;;;;;;
2023/04/22 02:35:04;;;;;;;6.6;3.9;;;;;;;;;;;;;
2023/04/22 02:37:30;;;;;;;5.5;3.8;;;;;;;;;;;;;
2023/04/22 02:39:56;;;;;;;5.5;3.7;;;;;;;;;;;;;
2023/04/22 02:42:21;;;;;;;4.8;3.5;;;;;;;;;;;;;
2023/04/22 02:44:46;;;;;;;4.2;3;;;;;;;;;;;;;
2023/04/22 02:47:11;;;;;;;4.2;3;;;;;;;;;;;;;
2023/04/22 02:49:36;;;;;;;3.4;2.5;;;;;;;;;;;;;
2023/04/22 02:52:01;;;;;;;1.9;1.7;;;;;;;;;;;;;
2023/04/22 02:54:26;;;;;;;2.1;1.7;;;;;;;;;;;;;
2023/04/22 02:56:51;;;;;;;1.8;1.4;;;;;;;;;;;;;
2023/04/22 02:59:17;;;;;;;3.7;1.8;;;;;;;;;;;;;
2023/04/22 03:01:42;;;;;;;1.7;1.3;;;;;;;;;;;;;
2023/04/22 03:04:07;;;;;;;2.4;1.3;;;;;;;;;;;;;
2023/04/22 03:06:32;;;;;;;11.8;9;;;;;;;;;;;;;
2023/04/22 03:08:57;;;;;;;1.7;1.6;;;;;;;;;;;;;
2023/04/22 03:11:23;;;;;;;1.7;1.3;;;;;;;;;;;;;
2023/04/22 03:13:49;;;;;;;1.7;1.6;;;;;;;;;;;;;
2023/04/22 03:16:17;;;;;;;2.5;1.5;;;;;;;;;;;;;
2023/04/22 03:18:42;;;;;;;3.5;2.5;;;;;;;;;;;;;
2023/04/22 03:21:07;;;;;;;4.7;1.8;;;;;;;;;;;;;
2023/04/22 03:23:32;;;;;;;9.7;6.4;;;;;;;;;;;;;
2023/04/22 03:25:58;;;;;;;7;4;;;;;;;;;;;;;
2023/04/22 03:28:23;;;;;;;3.2;2.3;;;;;;;;;;;;;
2023/04/22 03:30:50;;;;;;;5.4;2.3;;;;;;;;;;;;;
2023/04/22 03:33:15;;;;;;;4.6;2.3;;;;;;;;;;;;;
2023/04/22 03:35:47;;;;;;;4.4;2.3;;;;;;;;;;;;;
2023/04/22 03:38:12;;;;;;;3.5;1.9;;;;;;;;;;;;;
2023/04/22 03:40:37;;;;;;;4.1;1.9;;;;;;;;;;;;;
2023/04/22 03:43:04;;;;;;;3.9;1.8;;;;;;;;;;;;;
2023/04/22 03:45:30;;;;;;;2.2;1.6;;;;;;;;;;;;;
2023/04/22 03:47:55;;;;;;;4.3;1.8;;;;;;;;;;;;;
2023/04/22 03:50:21;;;;;;;3.1;2.3;;;;;;;;;;;;;
2023/04/22 03:52:46;;;;;;;4;2.2;;;;;;;;;;;;;
2023/04/22 03:55:11;;;;;;;3.9;2.3;;;;;;;;;;;;;
2023/04/22 03:57:38;;;;;;;3;2.1;;;;;;;;;;;;;
2023/04/22 04:00:04;;;;;;;2.7;1.8;;;;;;;;;;;;;
2023/04/22 04:02:41;;;;;;;4.9;1.8;;;;;;;6.97;86.36328;932.6749;;;;
2023/04/22 04:05:11;;;;;;;2.3;1.7;;;;;;;7.07;85.9873;932.6599;;;;
2023/04/22 04:07:36;;;;;;;3;1.7;;;;;;;7.17;85.46484;932.6549;;;;
2023/04/22 04:10:07;;;;;;;3.8;3;;;;;;;7.22;84.54492;932.6749;;;;
2023/04/22 04:12:32;;;;;;;5;3;;;;;;;7.12;85.0918;932.7034;;;;
2023/04/22 04:14:58;;;;;;;4.1;3.5;;;;;;;7.13;85.2959;932.6378;;;;
2023/04/22 04:17:24;;;;;;;6.8;3.6;;;;;;;7.13;85.01563;932.637;;;;
2023/04/22 04:19:52;;;;;;;3.7;3.1;;;;;;;6.98;85.70996;932.6339;;;;
2023/04/22 04:22:18;;;;;;;5.6;3;;;;;;;7.04;85.80078;932.5859;;;;
2023/04/22 04:24:46;;;;;;;4;2;;;;;;;7.13;85.31836;932.7153;;;;
2023/04/22 04:27:11;;;;;;;3.7;2;;;;;;;7.09;84.99414;932.6847;;;;
2023/04/22 04:29:41;;;;;;;2.7;1.9;;;;;;;7.15;85.0293;932.6586;;;;
2023/04/22 04:32:07;;;;;;;2.7;1.7;;;;;;;7.19;84.57324;932.6512;;;;
2023/04/22 04:34:36;;;;;;;4.1;1.9;;;;;;;7.23;84.6582;932.591;;;;
2023/04/22 04:36:59;;;;;;;3;1.9;;;;;;;7.2;84.83398;932.5761;;;;
2023/04/22 04:39:27;;;;;;;2.9;1.8;;;;;;;7.24;84.58203;932.6102;;;;
2023/04/22 04:41:57;;;;;;;3.2;1.6;;;;;;;7.17;84.86426;932.6201;;;;
2023/04/22 04:44:19;;;;;;;2.1;1.7;;;;;;;7.18;85.0459;932.6345;;;;
2023/04/22 04:46:50;;;;;;;4.4;2.4;;;;;;;7.28;84.47656;932.6163;;;;
2023/04/22 04:49:15;;;;;;;3.8;2.3;;;;;;;7.35;84.28613;932.6828;;;;
2023/04/22 04:51:41;;;;;;;4.3;2.8;;;;;;;7.49;84.14453;932.6586;;;;
2023/04/22 04:54:06;;;;;;;8;3.7;;;;;;;7.67;83.31641;932.6641;;;;
2023/04/22 04:56:31;;;;;;;7.4;3.5;;;;;;;7.72;83.41992;932.6536;;;;
2023/04/22 04:58:59;;;;;;;4.3;3.1;;;;;;;7.82;82.76758;932.7175;;;;
2023/04/22 05:01:24;;;;;;;3.5;2.6;;;;;;;7.93;82.03027;932.7051;;;;
2023/04/22 05:03:55;;;;;;;2.5;2.3;;;;;;;8.02;81.78418;932.723;;;;
2023/04/22 05:06:20;;;;;;;2.1;1.9;;;;;;;8.24;81.12305;932.5859;;;;
2023/04/22 05:08:45;;;;;;;3.3;2.2;;;;;;;8.37;80.69238;932.6808;;;;
2023/04/22 05:11:10;;;;;;;4.2;2.2;;;;;;;8.55;79.74902;932.6683;;;;
2023/04/22 05:13:36;;;;;;;3;2.2;;;;;;;8.71;78.82422;932.7159;;;;
2023/04/22 05:16:01;;;;;;;2.3;1.9;;;;;;;8.77;79.02734;932.6956;;;;
2023/04/22 05:18:29;;;;;;;1.5;1.4;;;;;;;8.75;77.9209;932.6931;;;;
2023/04/22 05:20:54;;;;;;;2.9;1.7;;;;;;;8.87;78.03516;932.6776;;;;
2023/04/22 05:23:24;;;;;;;1.8;1.3;;;;;;;9.07;76.95605;932.7275;;;;
2023/04/22 05:25:49;;;;;;;1.2;1.1;;;;;;;9.28;76.19629;932.6869;;;;
2023/04/22 05:28:17;;;;;;;1.5;1.3;;;;;;;9.66;73.55273;932.7082;;;;
2023/04/22 05:30:42;;;;;;;1.4;1.3;;;;;;;10;72.53711;932.6498;;;;
2023/04/22 05:33:09;;;;;;;1.6;1.5;;;;;;;11.17;71.21289;932.6624;;;;
2023/04/22 05:35:35;;;;;;;1.7;1.4;;;;;;;11.9;66.3291;932.702;;;;
2023/04/22 05:38:03;;;;;;;3.4;2.1;;;;;;;13.03;62.99805;932.7015;;;;
2023/04/22 05:40:28;;;;;;;1.4;1;;;;;;;13.2;60.8623;932.6867;;;;
2023/04/22 05:42:56;;;;;;;1.2;1.1;;;;;;;13.55;57.42871;932.6957;;;;
2023/04/22 05:45:25;;;;;;;3.1;0.8;;;;;;;13.13;56.73047;932.7158;;;;
2023/04/22 05:47:50;;;;;;;1.4;0.9;;;;;;;14.04;55.29395;932.7603;;;;
2023/04/22 05:50:19;;;;;;;1.2;1.1;;;;;;;14.82;53.74512;932.729;;;;
2023/04/22 05:52:44;;;;;;;1.4;1.1;;;;;;;14.88;53.44043;932.7473;;;;
2023/04/22 05:55:15;;;;;;;2.6;1;;;;;;;14.14;55.82617;932.7045;;;;
2023/04/22 05:57:45;;;;;;;1.2;1.1;;;;;;;13.85;56.65039;932.7224;;;;
2023/04/22 06:00:10;;;;;;;2;1.1;;;;;;;13.18;57.8623;932.6981;;;;
2023/04/22 06:02:37;;;;;;;1.1;1;;;;;;;12.87;59.10547;932.6923;;;;
2023/04/22 06:05:12;;;;;;;0.9;0.9;;;;;;;13.17;57.66699;932.6938;;;;
2023/04/22 06:07:37;;;;;;;1.3;1.2;;;;;;;13.66;58.92578;932.6587;;;;
2023/04/22 06:10:02;;;;;;;2.6;1.3;;;;;;;13.89;56.65625;932.6418;;;;
2023/04/22 06:12:27;;;;;;;1;0.9;;;;;;;14.21;55.58105;932.6877;;;;
2023/04/22 06:14:52;;;;;;;1.5;1.2;;;;;;;14.8;54.06543;932.5959;;;;
2023/04/22 06:17:25;;;;;;;2.5;2.4;;;;;;;14.86;51.50098;932.6947;;;;
2023/04/22 06:19:50;;;;;;;1.4;1.3;;;;;;;15.11;51.95703;932.6837;;;;
2023/04/22 06:22:15;;;;;;;2.1;0.9;;;;;;;15.58;49.96875;932.6926;;;;
2023/04/22 06:24:40;;;;;;;1.2;0.8;;;;;;;15.59;48.49121;932.7079;;;;
2023/04/22 06:27:05;;;;;;;1;0.8;;;;;;;16.54;49.24512;932.7083;;;;
2023/04/22 06:29:30;;;;;;;1.5;0.9;;;;;;;16.48;50.30273;932.6898;;;;
2023/04/22 06:31:57;;;;;;;1.4;0.9;;;;;;;16.93;48.55859;932.697;;;;
2023/04/22 06:34:23;;;;;;;2.9;1.1;;;;;;;16.84;49.09277;932.7242;;;;
2023/04/22 06:36:53;;;;;;;2.3;1.5;;;;;;;16.82;48.92871;932.6917;;;;
2023/04/22 06:39:17;;;;;;;3.2;1.5;;;;;;;16.93;46.56543;932.738;;;;
2023/04/22 06:41:47;;;;;;;2.8;2;;;;;;;17.98;46.12012;932.7465;;;;
2023/04/22 06:44:12;;;;;;;2.2;1.4;;;;;;;19.63;42.30566;932.7332;;;;
2023/04/22 06:46:39;;;;;;;1.5;1;;;;;;;19.05;41.19043;932.6898;;;;
2023/04/22 06:49:05;;;;;;;2.2;1;;;;;;;19.55;40.92285;932.7227;;;;
2023/04/22 06:51:33;;;;;;;1.4;1;;;;;;;19.13;41.99121;932.788;;;;
2023/04/22 06:53:59;;;;;;;1.2;1;;;;;;;20.24;39.18848;932.6956;;;;
2023/04/22 06:56:34;;;;;;;0.7;0.6;;;;;;;19.71;38.6748;932.7095;;;;
2023/04/22 06:59:36;;;;;;;1.6;0.9;;;;;;;20.23;39.24609;932.6685;;;;
2023/04/22 07:02:06;;;;;;;1.3;0.8;;;;;;;19.06;39.31738;932.6621;;;;
2023/04/22 07:04:31;;;;;;;15.7;9.4;;;;;;;18.66;39.72363;932.7006;;;;
2023/04/22 07:06:59;;;;;;;1.6;1.5;;;;;;;20.17;38.03809;932.5862;;;;
2023/04/22 07:09:24;;;;;;;1.5;0.7;;;;;;;20.9;36.83887;932.5842;;;;
2023/04/22 07:11:50;;;;;;;0.7;0.7;;;;;;;19.54;36.37598;932.652;;;;
2023/04/22 07:14:15;;;;;;;0.8;0.8;;;;;;;17.96;39.19531;932.6287;;;;
2023/04/22 07:16:44;;;;;;;1;0.9;;;;;;;17.99;40.15039;932.6255;;;;
2023/04/22 07:19:09;;;;;;;0.7;0.7;;;;;;;17.33;41.4707;932.5944;;;;
2023/04/22 07:21:36;;;;;;;0.7;0.7;;;;;;;19.38;39.60254;932.5492;;;;
2023/04/22 07:24:01;;;;;;;1;0.7;;;;;;;19.23;39.0166;932.5173;;;;
2023/04/22 07:26:27;;;;;;;0.7;0.7;;;;;;;18.69;39.22559;932.5256;;;;
2023/04/22 07:28:52;;;;;;;4.7;1;;;;;;;18.58;39.2627;932.5436;;;;
2023/04/22 07:31:19;;;;;;;2.2;1.1;;;;;;;19.52;37.48242;932.5295;;;;
2023/04/22 07:33:45;;;;;;;1.1;0.8;;;;;;;20.76;35.37793;932.4519;;;;
2023/04/22 07:36:14;;;;;;;1.4;0.7;;;;;;;20.78;35.9873;932.4955;;;;
2023/04/22 07:38:43;;;;;;;1.8;0.7;;;;;;;20.44;36.32129;932.4534;;;;
2023/04/22 07:41:08;;;;;;;2.6;0.8;;;;;;;21.74;35.06934;932.4598;;;;
2023/04/22 07:43:33;;;;;;;0.5;0.5;;;;;;;22.12;35.13477;932.435;;;;
2023/04/22 07:46:03;;;;;;;1.1;0.8;;;;;;;24.42;30.50879;932.3973;;;;
2023/04/22 07:48:28;;;;;;;1;0.9;;;;;;;24.92;29.39941;932.4174;;;;
2023/04/22 07:50:56;;;;;;;0.9;0.8;;;;;;;26.61;26.26465;932.3711;;;;
2023/04/22 07:53:22;;;;;;;0.9;0.7;;;;;;;28.27;27.37305;932.3083;;;;
2023/04/22 07:55:49;;;;;;;1.3;0.8;;;;;;;26.71;25.40625;932.3777;;;;
2023/04/22 07:58:14;;;;;;;1.4;0.7;;;;;;;28.22;25.97852;932.2732;;;;
2023/04/22 08:00:43;;;;;;;0.7;0.6;;;;;;;29.54;23.93359;932.3286;;;;
2023/04/22 08:03:08;;;;;;;0.9;0.5;;;;;;;27.51;24.34863;932.3732;;;;
2023/04/22 08:05:36;;;;;;;1;0.7;;;;;;;28.29;23.45117;932.3285;;;;
2023/04/22 08:08:01;;;;;;;0.6;0.6;;;;;;;29.1;23.0293;932.3003;;;;
2023/04/22 08:10:28;;;;;;;1.4;0.7;;;;;;;28.42;24.40918;932.2594;;;;
2023/04/22 08:12:53;;;;;;;1.5;0.6;;;;;;;28.63;24.05273;932.2444;;;;
2023/04/22 08:15:19;;;;;;;0.7;0.7;;;;;;;25.81;24.54004;932.2678;;;;
2023/04/22 08:17:44;;;;;;;0.7;0.6;;;;;;;26.95;23.76074;932.2704;;;;
2023/04/22 08:20:17;;;;;;;1.7;0.7;;;;;;;28.84;24.74219;932.1933;;;;
2023/04/22 08:22:50;;;;;;;0.5;0.5;;;;;;;28.54;24.16602;932.1788;;;;
2023/04/22 08:25:13;;;;;;;0.7;0.7;;;;;;;28.11;23.19238;932.1911;;;;
2023/04/22 08:27:38;;;;;;;0.8;0.7;;;;;;;26.1;23.90527;932.1694;;;;
2023/04/22 08:30:07;;;;;;;0.5;0.5;;;;;;;25.92;24.83008;932.1367;;;;
2023/04/22 08:32:35;;;;;;;0.5;0.5;;;;;;;26.92;24.9209;932.1446;;;;
2023/04/22 08:35:00;;;;;;;0.7;0.7;;;;;;;26;24.64453;932.1214;;;;
2023/04/22 08:37:25;;;;;;;1.7;0.7;;;;;;;24.83;26.64355;932.0745;;;;
2023/04/22 08:39:55;;;;;;;0.6;0.6;;;;;;;24.05;26.75098;932.0789;;;;
2023/04/22 08:42:20;;;;;;;1.6;0.5;;;;;;;25.15;25.79004;932.0701;;;;
2023/04/22 08:44:47;;;;;;;0.6;0.6;;;;;;;26;24.51465;932.0274;;;;
2023/04/22 08:47:12;;;;;;;1.5;0.6;;;;;;;25.25;25.46484;932.0087;;;;
2023/04/22 08:49:39;;;;;;;0.5;0.5;;;;;;;24.79;25.42773;931.9462;;;;
2023/04/22 08:52:04;;;;;;;0.6;0.6;;;;;;;25.5;24.81836;931.9866;;;;
2023/04/22 08:54:32;;;;;;;0.9;0.8;;;;;;;25.73;24.45215;931.9825;;;;
2023/04/22 08:56:56;;;;;;;0.9;0.8;;;;;;;26.78;24.8418;932.0059;;;;
2023/04/22 08:59:23;;;;;;;1.3;0.6;;;;;;;28.68;22.03223;931.957;;;;
2023/04/22 09:01:49;;;;;;;0.6;0.6;;;;;;;27.37;21.7666;931.9462;;;;
2023/04/22 09:04:19;;;;;;;0.9;0.7;;;;;;;27.69;22.67285;931.9026;;;;
2023/04/22 09:06:45;;;;;;;0.9;0.7;;;;;;;27.16;22.58594;931.8742;;;;
2023/04/22 09:09:11;;;;;;;1;0.7;;;;;;;29.18;22.19922;931.7859;;;;
2023/04/22 09:11:36;;;;;;;0.6;0.6;;;;;;;28.62;20.57813;931.7792;;;;
2023/04/22 09:14:03;;;;;;;3;0.7;;;;;;;24.65;24.11035;931.7417;;;;
2023/04/22 09:16:36;;;;;;;0.7;0.7;;;;;;;27.47;23.44434;931.7372;;;;
2023/04/22 09:19:05;;;;;;;1.4;0.7;;;;;;;27.75;21.80859;931.7145;;;;
2023/04/22 09:21:33;;;;;;;1;0.6;;;;;;;28.7;21.0459;931.7268;;;;
2023/04/22 09:24:01;;;;;;;2;0.7;;;;;;;29.18;21.96191;931.6842;;;;
2023/04/22 09:26:25;;;;;;;1.1;0.7;;;;;;;29.37;20.76758;931.6555;;;;
2023/04/22 09:28:51;;;;;;;0.7;0.7;;;;;;;28.18;20.16602;931.6105;;;;
2023/04/22 09:31:17;;;;;;;1.3;0.8;;;;;;;27.68;24.25;931.6356;;;;
2023/04/22 09:33:45;;;;;;;0.6;0.6;;;;;;;27.5;19.41211;931.6152;;;;
2023/04/22 09:36:10;;;;;;;1;0.8;;;;;;;27.45;21.37891;931.5547;;;;
2023/04/22 09:38:44;;;;;;;1.7;1.1;;;;;;;28.27;20.21777;931.5527;;;;
2023/04/22 09:41:14;;;;;;;0.8;0.8;;;;;;;28.31;22.64453;931.4934;;;;
2023/04/22 09:43:38;;;;;;;4;1.4;;;;;;;28.05;19.92285;931.4709;;;;
2023/04/22 09:46:04;;;;;;;4.9;1.3;;;;;;;28.08;24.34375;931.4146;;;;
2023/04/22 09:48:29;;;;;;;1.3;0.9;;;;;;;27.96;22.51953;931.3906;;;;
2023/04/22 09:50:56;;;;;;;6.4;2.5;;;;;;;28.1;24.20215;931.4046;;;;
2023/04/22 09:53:22;;;;;;;1;0.7;;;;;;;27.5;21.58301;931.3894;;;;
2023/04/22 09:55:48;;;;;;;1;0.9;;;;;;;27.49;24.96387;931.3754;;;;
2023/04/22 09:58:13;;;;;;;1;0.8;;;;;;;27.42;22.3623;931.3364;;;;
2023/04/22 10:00:38;;;;;;;3.5;1.3;;;;;;;27.67;20.43945;931.274;;;;
2023/04/22 10:03:03;;;;;;;2.2;0.8;;;;;;;26.97;21.28516;931.2523;;;;
2023/04/22 10:05:36;;;;;;;26.3;7.3;;;;;;;27.74;24.33691;931.2011;;;;
2023/04/22 10:07:59;;;;;;;0.6;0.5;;;;;;;28.07;20.81445;931.1215;;;;
2023/04/22 10:10:26;;;;;;;1.1;0.7;;;;;;;27.77;19.95703;931.0586;;;;
2023/04/22 10:12:51;;;;;;;1;0.9;;;;;;;27.75;21.3457;931.0538;;;;
2023/04/22 10:15:19;;;;;;;3.4;0.9;;;;;;;28.76;20.50195;931.0937;;;;
2023/04/22 10:17:47;;;;;;;1.8;1.1;;;;;;;28.95;18.52148;931.074;;;;
2023/04/22 10:20:15;;;;;;;1.5;1;;;;;;;29.74;17.6123;931.0659;;;;
2023/04/22 10:22:43;;;;;;;2;1.1;;;;;;;30.35;16.20313;931.0413;;;;
2023/04/22 10:25:08;;;;;;;1.5;1;;;;;;;30.44;17.6875;931.0341;;;;
2023/04/22 10:27:35;;;;;;;1.6;0.9;;;;;;;30.71;17.79297;931.0251;;;;
2023/04/22 10:30:00;;;;;;;1.9;1.1;;;;;;;31.29;16.66797;930.9961;;;;
2023/04/22 10:32:27;;;;;;;1;0.9;;;;;;;31.23;19.02246;931.0248;;;;
2023/04/22 10:34:52;;;;;;;1.2;1;;;;;;;30.4;18.23535;930.9949;;;;
2023/04/22 10:37:19;;;;;;;6.8;1.5;;;;;;;31.22;18.6875;930.8934;;;;
2023/04/22 10:39:44;;;;;;;1.5;1.2;;;;;;;32.4;16.00098;930.9202;;;;
2023/04/22 10:42:10;;;;;;;3.3;1;;;;;;;32.29;17.3877;930.8113;;;;
2023/04/22 10:44:39;;;;;;;2.2;1.5;;;;;;;31.77;17.53613;930.836;;;;
2023/04/22 10:47:04;;;;;;;3.6;1.4;;;;;;;32.71;17.04395;930.7708;;;;
2023/04/22 10:49:30;;;;;;;3.6;1.4;;;;;;;33.88;16.31738;930.796;;;;
2023/04/22 10:52:00;;;;;;;1.1;0.9;;;;;;;32.3;15.36133;930.7668;;;;
2023/04/22 10:54:25;;;;;;;1;0.9;;;;;;;33.3;17.41504;930.6836;;;;
2023/04/22 10:56:50;;;;;;;1;0.9;;;;;;;33.72;16.11914;930.7117;;;;
2023/04/22 10:59:17;;;;;;;1.6;1;;;;;;;33.32;15.86523;930.736;;;;
2023/04/22 11:01:42;;;;;;;1.7;1.1;;;;;;;32.68;17.13867;930.7394;;;;
2023/04/22 11:04:12;;;;;;;1.3;1.2;;;;;;;31.81;16.89063;930.7393;;;;
2023/04/22 11:06:37;;;;;;;1.9;1.1;;;;;;;32.44;16.92578;930.7361;;;;
2023/04/22 11:09:02;;;;;;;1.4;1.1;;;;;;;32.47;15.13965;930.7647;;;;
2023/04/22 11:11:27;;;;;;;1;0.9;;;;;;;32.2;16.2334;930.7209;;;;
2023/04/22 11:13:56;;;;;;;1.3;1;;;;;;;32.34;18.80566;930.6794;;;;
2023/04/22 11:16:29;;;;;;;2.2;1;;;;;;;31.11;17.03223;930.697;;;;
2023/04/22 11:18:54;;;;;;;2.1;1.3;;;;;;;30.17;17.41406;930.7469;;;;
2023/04/22 11:21:25;;;;;;;2.7;1.4;;;;;;;29.35;18.75293;930.6646;;;;
2023/04/22 11:23:49;;;;;;;1.8;1.1;;;;;;;29.66;19.88672;930.6315;;;;
2023/04/22 11:26:18;;;;;;;1.3;1;;;;;;;30.29;19.03027;930.6898;;;;
2023/04/22 11:28:43;;;;;;;1.2;1.1;;;;;;;30.73;19.28809;930.6662;;;;
2023/04/22 11:31:10;;;;;;;2.2;1.2;;;;;;;30.48;18.65625;930.6741;;;;
2023/04/22 11:33:37;;;;;;;1;0.9;;;;;;;30.59;19.11523;930.6724;;;;
2023/04/22 11:36:00;;;;;;;1.7;0.8;;;;;;;31.56;18.55762;930.6117;;;;
2023/04/22 11:38:30;;;;;;;1.3;0.9;;;;;;;30.35;18.86621;930.599;;;;
2023/04/22 11:40:55;;;;;;;1.1;1;;;;;;;30.94;16.83398;930.656;;;;
2023/04/22 11:43:20;;;;;;;1.7;0.9;;;;;;;30.85;18.83984;930.6331;;;;
2023/04/22 11:45:48;;;;;;;1.6;1;;;;;;;32.37;18.33887;930.6086;;;;
2023/04/22 11:48:13;;;;;;;3;1;;;;;;;33.57;15.41699;930.5151;;;;
2023/04/22 11:50:38;;;;;;;1.3;1;;;;;;;33.6;14.96094;930.5503;;;;
2023/04/22 11:53:04;;;;;;;2;1;;;;;;;34.24;16.53516;930.4922;;;;
2023/04/22 11:55:32;;;;;;;2.7;1.7;;;;;;;35.31;16.36914;930.5475;;;;
2023/04/22 11:58:00;;;;;;;1.9;1;;;;;;;34.48;14.80859;930.5115;;;;
2023/04/22 12:00:27;;;;;;;2.6;1.2;;;;;;;34.61;15.68066;930.4705;;;;
2023/04/22 12:02:57;;;;;;;2.6;1.2;;;;;;;35.81;14.34473;930.4517;;;;
2023/04/22 12:05:26;;;;;;;1.1;1;;;;;;;36.45;14.25586;930.4139;;;;
2023/04/22 12:07:51;;;;;;;6;1.3;;;;;;;33.83;16.66504;930.3514;;;;
2023/04/22 12:10:19;;;;;;;5.2;1.4;;;;;;;31.77;18.79395;930.2971;;;;
2023/04/22 12:12:44;;;;;;;1.6;1.1;;;;;;;31.4;17.56934;930.3486;;;;
2023/04/22 12:15:15;;;;;;;1.1;1;;;;;;;31.44;17.99023;930.3356;;;;
2023/04/22 12:17:46;;;;;;;1.5;1.2;;;;;;;31.22;17.35938;930.3408;;;;
2023/04/22 12:20:17;;;;;;;1.2;1.1;;;;;;;31.15;19.50977;930.3287;;;;
2023/04/22 12:22:43;;;;;;;3.4;1.3;;;;;;;30;23.7793;930.298;;;;
2023/04/22 12:25:14;;;;;;;1.9;1.1;;;;;;;30.64;20.26465;930.2875;;;;
2023/04/22 12:27:43;;;;;;;1.9;1;;;;;;;30.06;19.91602;930.2642;;;;
2023/04/22 12:30:16;;;;;;;1.4;1.1;;;;;;;29.82;21.79004;930.3326;;;;
2023/04/22 12:32:44;;;;;;;2;1.2;;;;;;;30.19;19.0625;930.2708;;;;
2023/04/22 12:35:09;;;;;;;1.2;0.9;;;;;;;29.84;19.20215;930.2595;;;;
2023/04/22 12:37:37;;;;;;;1.4;1.1;;;;;;;29.7;20.56738;930.272;;;;
2023/04/22 12:40:03;;;;;;;2.2;1;;;;;;;28.96;22.73633;930.3156;;;;
2023/04/22 12:42:33;;;;;;;1.2;1.1;;;;;;;28.78;21.10938;930.212;;;;
2023/04/22 12:44:58;;;;;;;1.5;1.2;;;;;;;27.87;24.75977;930.2385;;;;
2023/04/22 12:47:26;;;;;;;2.1;1.1;;;;;;;26.99;26.37012;930.3251;;;;
2023/04/22 12:49:51;;;;;;;2.3;1.1;;;;;;;26.64;27.12012;930.2889;;;;
2023/04/22 12:52:18;;;;;;;1.7;1.1;;;;;;;25.74;28.43652;930.2907;;;;
2023/04/22 12:54:43;;;;;;;1.9;1;;;;;;;25.66;29.9209;930.3248;;;;
2023/04/22 12:57:10;;;;;;;2;1.1;;;;;;;25.9;27.55957;930.2969;;;;
2023/04/22 12:59:35;;;;;;;1.2;1;;;;;;;26.19;26.44141;930.2977;;;;
2023/04/22 13:02:01;;;;;;;2.5;1;;;;;;;26.37;26.10938;930.2733;;;;
2023/04/22 13:04:26;;;;;;;1.1;1;;;;;;;26.65;25.85352;930.2733;;;;
2023/04/22 13:06:57;;;;;;;2.3;0.9;;;;;;;26.83;26.59863;930.2661;;;;
2023/04/22 13:09:20;;;;;;;2.1;0.9;;;;;;;26.74;27.46875;930.2421;;;;
2023/04/22 13:11:50;;;;;;;1;0.9;;;;;;;26.92;26.31934;930.2054;;;;
2023/04/22 13:14:21;;;;;;;1.7;1.1;;;;;;;26.73;26.42676;930.2026;;;;
2023/04/22 13:16:47;;;;;;;1.4;0.9;;;;;;;26.65;27.67676;930.1851;;;;
2023/04/22 13:19:18;;;;;;;1.1;1;;;;;;;26.46;27.99707;930.0328;;;;
2023/04/22 13:21:44;;;;;;;1.2;1.1;;;;;;;25.99;29.04297;930.1691;;;;
2023/04/22 13:24:12;;;;;;;1.6;1.3;;;;;;;26.15;27.50391;930.0764;;;;
2023/04/22 13:26:38;;;;;;;1.1;1;;;;;;;26.47;26.81348;930.1206;;;;
2023/04/22 13:29:09;;;;;;;0.8;0.8;;;;;;;26.46;26.09082;930.1266;;;;
2023/04/22 13:31:31;;;;;;;1.2;0.9;;;;;;;26.65;25.73438;930.0952;;;;
2023/04/22 13:33:56;;;;;;;1;0.9;;;;;;;26.64;26.30273;930.0292;;;;
2023/04/22 13:36:23;;;;;;;1.8;1.1;;;;;;;26.66;25.55762;930.1077;;;;
2023/04/22 13:38:49;;;;;;;2.7;1.2;;;;;;;26.65;25.58105;930.0184;;;;
2023/04/22 13:41:17;;;;;;;1.3;1.1;;;;;;;26.62;25.38965;930.0143;;;;
2023/04/22 13:43:50;;;;;;;2.1;1.1;;;;;;;26.59;25.48242;930.0081;;;;
2023/04/22 13:46:10;;;;;;;1.2;1.1;;;;;;;26.13;27.24219;930.0568;;;;
2023/04/22 13:48:38;;;;;;;1.6;1.1;;;;;;;26.15;27.49219;930.033;;;;
2023/04/22 13:51:05;;;;;;;2.8;1;;;;;;;26.42;25.79199;929.9888;;;;
2023/04/22 13:53:30;;;;;;;1.4;1;;;;;;;26.21;26.0293;929.9637;;;;
2023/04/22 13:55:58;;;;;;;1.3;1.1;;;;;;;26.14;28.01172;929.9556;;;;
2023/04/22 13:58:26;;;;;;;1.8;1;;;;;;;25.7;29.81641;929.8525;;;;
2023/04/22 14:00:52;;;;;;;1.1;1;;;;;;;25.23;29.49023;929.8951;;;;
2023/04/22 14:03:19;;;;;;;1.9;1.2;;;;;;;25.48;27.87695;929.8593;;;;
2023/04/22 14:05:44;;;;;;;1.2;1;;;;;;;25.67;27.72266;929.8101;;;;
2023/04/22 14:08:15;;;;;;;1.2;1.1;;;;;;;25.58;28.58008;929.8507;;;;
2023/04/22 14:10:43;;;;;;;2.1;1.2;;;;;;;25.2;32.5332;929.8102;;;;
2023/04/22 14:13:08;;;;;;;1.9;1.3;;;;;;;25;31.87012;929.8098;;;;
2023/04/22 14:15:43;;;;;;;2.7;1.3;;;;;;;25.03;30.55078;929.8325;;;;
2023/04/22 14:18:14;;;;;;;1;0.9;;;;;;;25.12;28.95215;929.7894;;;;
2023/04/22 14:20:44;;;;;;;2.5;1.4;;;;;;;25.02;29.66504;929.8399;;;;
2023/04/22 14:23:07;;;;;;;2.4;1.3;;;;;;;25.01;31.18652;929.7275;;;;
2023/04/22 14:25:34;;;;;;;1.2;1.1;;;;;;;24.93;31.21582;929.7858;;;;
2023/04/22 14:27:59;;;;;;;2.4;1.4;;;;;;;24.88;30.06836;929.7497;;;;
2023/04/22 14:30:24;;;;;;;4.5;1.3;;;;;;;24.83;30.69043;929.7491;;;;
2023/04/22 14:32:52;;;;;;;1.1;1;;;;;;;24.66;30.14746;929.748;;;;
2023/04/22 14:35:18;;;;;;;2.9;1.2;;;;;;;24.47;31.19531;929.7062;;;;
2023/04/22 14:37:47;;;;;;;2.9;1.4;;;;;;;24.45;31.14746;929.7328;;;;
2023/04/22 14:40:13;;;;;;;1.8;1.5;;;;;;;24.53;30.58691;929.7547;;;;
2023/04/22 14:42:43;;;;;;;2.8;1.4;;;;;;;24.62;31.21875;929.7664;;;;
2023/04/22 14:45:17;;;;;;;2.8;1.5;;;;;;;24.66;33.8623;929.8212;;;;
2023/04/22 14:47:47;;;;;;;1.9;1.4;;;;;;;24.6;32.37207;929.7575;;;;
2023/04/22 14:50:16;;;;;;;1.8;1.6;;;;;;;24.56;32.27539;929.7458;;;;
2023/04/22 14:52:41;;;;;;;1.5;1.2;;;;;;;24.14;33.90527;929.7291;;;;
2023/04/22 14:55:13;;;;;;;2.2;1.1;;;;;;;24.01;31.72852;929.7022;;;;
2023/04/22 14:57:39;;;;;;;2.6;1.9;;;;;;;23.96;34.52734;929.7242;;;;
2023/04/22 15:00:06;;;;;;;2.2;1.4;;;;;;;23.5;34.18555;929.7511;;;;
2023/04/22 15:02:36;;;;;;;2.9;1.3;;;;;;;23.03;35.05469;929.7466;;;;
2023/04/22 15:05:03;;;;;;;1.3;1.2;;;;;;;22.59;35.84082;929.7118;;;;
2023/04/22 15:07:28;;;;;;;1.5;1;;;;;;;22.71;35.9209;929.75;;;;
2023/04/22 15:09:57;;;;;;;1.3;1;;;;;;;22.67;36.77441;929.8053;;;;
2023/04/22 15:12:22;;;;;;;1.2;1.1;;;;;;;22.57;36.59082;929.7349;;;;
2023/04/22 15:14:49;;;;;;;2.3;1.3;;;;;;;22.56;36.21387;929.7936;;;;
2023/04/22 15:17:16;;;;;;;2.4;1.1;;;;;;;22.58;36.19238;929.813;;;;
2023/04/22 15:19:44;;;;;;;3.3;1.3;;;;;;;22.62;36.71289;929.793;;;;
2023/04/22 15:22:15;;;;;;;2.1;1.1;;;;;;;22.65;37.87695;929.8161;;;;
2023/04/22 15:24:42;;;;;;;2.2;1.3;;;;;;;22.89;37.08594;929.7885;;;;
2023/04/22 15:27:07;;;;;;;2.1;1.3;;;;;;;23.07;35.40918;929.8014;;;;
2023/04/22 15:29:37;;;;;;;1.4;1.2;;;;;;;23.11;33.79199;929.7723;;;;
2023/04/22 15:32:03;;;;;;;1.7;1.4;;;;;;;22.99;34.80371;929.7855;;;;